sensor_id;sensor_type;location;lat;lon;timestamp;pressure;altitude;pressure_sealevel;temperature;humidity
4767;BME280;2397;53.576;9.746;2023-05-11T00:00:35;101453.78;;;12.44;85.32
4767;BME280;2397;53.576;9.746;2023-05-11T00:03:01;101453.78;;;12.44;85.19
4767;BME280;2397;53.576;9.746;2023-05-11T00:05:28;101448.84;;;12.22;85.38
4767;BME280;2397;53.576;9.746;2023-05-11T00:07:54;101450.81;;;12.10;86.00
4767;BME280;2397;53.576;9.746;2023-05-11T00:10:21;101453.03;;;12.15;86.36
4767;BME280;2397;53.576;9.746;2023-05-11T00:12:48;101463.06;;;12.11;85.56
4767;BME280;2397;53.576;9.746;2023-05-11T00:15:14;101453.50;;;12.01;86.10
4767;BME280;2397;53.576;9.746;2023-05-11T00:17:41;101455.19;;;11.92;86.70
4767;BME280;2397;53.576;9.746;2023-05-11T00:20:08;101462.00;;;11.95;86.88
4767;BME280;2397;53.576;9.746;2023-05-11T00:22:35;101458.66;;;12.02;86.47
4767;BME280;2397;53.576;9.746;2023-05-11T00:25:02;101461.81;;;12.06;86.83
4767;BME280;2397;53.576;9.746;2023-05-11T00:27:28;101450.16;;;11.99;86.65
4767;BME280;2397;53.576;9.746;2023-05-11T00:29:55;101457.25;;;12.08;86.63
4767;BME280;2397;53.576;9.746;2023-05-11T00:32:22;101458.09;;;12.08;86.55
4767;BME280;2397;53.576;9.746;2023-05-11T00:34:48;101457.09;;;12.09;86.37
4767;BME280;2397;53.576;9.746;2023-05-11T00:37:15;101446.19;;;12.22;86.40
4767;BME280;2397;53.576;9.746;2023-05-11T00:39:41;101449.94;;;12.29;86.34
4767;BME280;2397;53.576;9.746;2023-05-11T00:42:09;101454.00;;;12.23;86.20
4767;BME280;2397;53.576;9.746;2023-05-11T00:44:36;101457.47;;;12.24;85.94
4767;BME280;2397;53.576;9.746;2023-05-11T00:47:02;101454.53;;;12.27;86.10
4767;BME280;2397;53.576;9.746;2023-05-11T00:49:29;101452.03;;;12.25;85.93
4767;BME280;2397;53.576;9.746;2023-05-11T00:51:56;101447.16;;;12.21;86.19
4767;BME280;2397;53.576;9.746;2023-05-11T00:54:23;101452.91;;;12.16;86.20
4767;BME280;2397;53.576;9.746;2023-05-11T00:56:50;101450.25;;;12.16;86.30
4767;BME280;2397;53.576;9.746;2023-05-11T00:59:17;101454.31;;;12.11;86.43
4767;BME280;2397;53.576;9.746;2023-05-11T01:01:44;101458.63;;;12.12;86.57
4767;BME280;2397;53.576;9.746;2023-05-11T01:04:11;101459.31;;;12.14;86.65
4767;BME280;2397;53.576;9.746;2023-05-11T01:09:45;101465.69;;;12.30;86.69
4767;BME280;2397;53.576;9.746;2023-05-11T01:12:39;101465.41;;;12.24;86.60
4767;BME280;2397;53.576;9.746;2023-05-11T01:15:11;101463.34;;;12.18;86.79
4767;BME280;2397;53.576;9.746;2023-05-11T01:17:45;101465.41;;;12.24;86.90
4767;BME280;2397;53.576;9.746;2023-05-11T01:20:18;101462.06;;;12.31;86.80
4767;BME280;2397;53.576;9.746;2023-05-11T01:25:50;101462.69;;;12.43;86.05
4767;BME280;2397;53.576;9.746;2023-05-11T01:31:25;101469.44;;;12.28;86.44
4767;BME280;2397;53.576;9.746;2023-05-11T01:34:04;101475.72;;;12.27;86.52
4767;BME280;2397;53.576;9.746;2023-05-11T01:36:33;101474.59;;;12.20;86.21
4767;BME280;2397;53.576;9.746;2023-05-11T01:39:04;101479.91;;;12.20;86.51
4767;BME280;2397;53.576;9.746;2023-05-11T01:41:34;101475.31;;;12.22;86.20
4767;BME280;2397;53.576;9.746;2023-05-11T01:44:06;101482.66;;;12.28;86.01
4767;BME280;2397;53.576;9.746;2023-05-11T01:46:35;101483.16;;;12.14;86.31
4767;BME280;2397;53.576;9.746;2023-05-11T01:49:05;101483.00;;;12.06;86.71
4767;BME280;2397;53.576;9.746;2023-05-11T01:51:36;101481.59;;;12.11;86.51
4767;BME280;2397;53.576;9.746;2023-05-11T01:54:08;101482.72;;;12.09;86.48
4767;BME280;2397;53.576;9.746;2023-05-11T01:56:37;101483.59;;;12.00;86.50
4767;BME280;2397;53.576;9.746;2023-05-11T01:59:06;101476.47;;;11.91;87.26
4767;BME280;2397;53.576;9.746;2023-05-11T02:01:34;101488.03;;;11.99;87.23
4767;BME280;2397;53.576;9.746;2023-05-11T02:04:03;101490.41;;;11.93;87.16
4767;BME280;2397;53.576;9.746;2023-05-11T02:06:31;101489.53;;;12.02;87.23
4767;BME280;2397;53.576;9.746;2023-05-11T02:09:00;101489.84;;;12.08;87.30
4767;BME280;2397;53.576;9.746;2023-05-11T02:11:29;101500.28;;;12.00;87.60
4767;BME280;2397;53.576;9.746;2023-05-11T02:13:58;101495.56;;;11.85;87.65
4767;BME280;2397;53.576;9.746;2023-05-11T02:16:28;101493.19;;;11.91;87.62
4767;BME280;2397;53.576;9.746;2023-05-11T02:18:58;101497.22;;;11.95;87.64
4767;BME280;2397;53.576;9.746;2023-05-11T02:21:26;101493.59;;;11.96;87.76
4767;BME280;2397;53.576;9.746;2023-05-11T02:23:53;101501.66;;;11.95;87.55
4767;BME280;2397;53.576;9.746;2023-05-11T02:26:21;101512.97;;;11.97;87.61
4767;BME280;2397;53.576;9.746;2023-05-11T02:28:48;101506.53;;;11.99;87.50
4767;BME280;2397;53.576;9.746;2023-05-11T02:31:26;101504.31;;;11.95;87.69
4767;BME280;2397;53.576;9.746;2023-05-11T02:34:01;101506.16;;;11.85;87.89
4767;BME280;2397;53.576;9.746;2023-05-11T02:36:32;101500.16;;;11.83;88.38
4767;BME280;2397;53.576;9.746;2023-05-11T02:39:06;101503.34;;;11.77;88.73
4767;BME280;2397;53.576;9.746;2023-05-11T02:41:38;101500.88;;;11.85;88.47
4767;BME280;2397;53.576;9.746;2023-05-11T02:44:10;101504.19;;;11.87;88.66
4767;BME280;2397;53.576;9.746;2023-05-11T02:46:38;101509.59;;;11.95;88.57
4767;BME280;2397;53.576;9.746;2023-05-11T02:49:07;101508.78;;;11.94;88.18
4767;BME280;2397;53.576;9.746;2023-05-11T02:51:36;101507.38;;;12.00;88.12
4767;BME280;2397;53.576;9.746;2023-05-11T02:54:08;101510.03;;;12.00;88.03
4767;BME280;2397;53.576;9.746;2023-05-11T02:56:40;101516.72;;;11.94;88.11
4767;BME280;2397;53.576;9.746;2023-05-11T02:59:07;101511.00;;;11.89;87.91
4767;BME280;2397;53.576;9.746;2023-05-11T03:01:34;101512.13;;;11.87;88.49
4767;BME280;2397;53.576;9.746;2023-05-11T03:04:03;101510.88;;;11.81;88.51
4767;BME280;2397;53.576;9.746;2023-05-11T03:06:30;101519.53;;;11.83;88.30
4767;BME280;2397;53.576;9.746;2023-05-11T03:08:58;101518.28;;;11.78;88.64
4767;BME280;2397;53.576;9.746;2023-05-11T03:11:25;101515.34;;;11.81;89.09
4767;BME280;2397;53.576;9.746;2023-05-11T03:13:52;101517.00;;;11.82;89.12
4767;BME280;2397;53.576;9.746;2023-05-11T03:16:19;101522.56;;;11.79;89.12
4767;BME280;2397;53.576;9.746;2023-05-11T03:18:48;101514.09;;;11.85;88.96
4767;BME280;2397;53.576;9.746;2023-05-11T03:21:17;101514.22;;;11.93;88.65
4767;BME280;2397;53.576;9.746;2023-05-11T03:23:46;101514.34;;;11.91;88.19
4767;BME280;2397;53.576;9.746;2023-05-11T03:26:15;101515.75;;;11.95;88.03
4767;BME280;2397;53.576;9.746;2023-05-11T03:28:43;101521.59;;;11.89;87.93
4767;BME280;2397;53.576;9.746;2023-05-11T03:31:11;101512.53;;;11.82;88.18
4767;BME280;2397;53.576;9.746;2023-05-11T03:33:38;101517.56;;;11.85;87.83
4767;BME280;2397;53.576;9.746;2023-05-11T03:36:09;101511.59;;;11.83;87.97
4767;BME280;2397;53.576;9.746;2023-05-11T03:38:36;101515.03;;;11.84;88.14
4767;BME280;2397;53.576;9.746;2023-05-11T03:41:05;101514.63;;;11.79;88.11
4767;BME280;2397;53.576;9.746;2023-05-11T03:43:35;101509.75;;;11.74;88.00
4767;BME280;2397;53.576;9.746;2023-05-11T03:46:03;101509.63;;;11.76;88.07
4767;BME280;2397;53.576;9.746;2023-05-11T03:48:30;101509.91;;;11.73;88.07
4767;BME280;2397;53.576;9.746;2023-05-11T03:50:57;101502.81;;;11.73;87.86
4767;BME280;2397;53.576;9.746;2023-05-11T03:53:24;101505.06;;;11.68;87.89
4767;BME280;2397;53.576;9.746;2023-05-11T03:55:51;101503.22;;;11.69;87.86
4767;BME280;2397;53.576;9.746;2023-05-11T03:58:18;101502.28;;;11.70;87.68
4767;BME280;2397;53.576;9.746;2023-05-11T04:00:45;101508.63;;;11.77;87.59
4767;BME280;2397;53.576;9.746;2023-05-11T04:03:12;101505.44;;;11.83;86.62
4767;BME280;2397;53.576;9.746;2023-05-11T04:05:39;101500.44;;;11.80;86.57
4767;BME280;2397;53.576;9.746;2023-05-11T04:08:09;101499.75;;;11.78;86.78
4767;BME280;2397;53.576;9.746;2023-05-11T04:10:36;101508.63;;;11.77;86.67
4767;BME280;2397;53.576;9.746;2023-05-11T04:13:03;101502.53;;;11.76;86.96
4767;BME280;2397;53.576;9.746;2023-05-11T04:15:30;101506.16;;;11.75;86.63
4767;BME280;2397;53.576;9.746;2023-05-11T04:17:56;101507.44;;;11.71;86.61
4767;BME280;2397;53.576;9.746;2023-05-11T04:20:23;101512.13;;;11.77;87.20
4767;BME280;2397;53.576;9.746;2023-05-11T04:22:50;101505.03;;;11.78;86.77
4767;BME280;2397;53.576;9.746;2023-05-11T04:25:16;101509.50;;;11.77;86.39
4767;BME280;2397;53.576;9.746;2023-05-11T04:27:43;101507.69;;;11.78;86.32
4767;BME280;2397;53.576;9.746;2023-05-11T04:30:10;101514.50;;;11.71;86.28
4767;BME280;2397;53.576;9.746;2023-05-11T04:32:37;101510.75;;;11.73;86.46
4767;BME280;2397;53.576;9.746;2023-05-11T04:35:04;101504.19;;;11.77;86.05
4767;BME280;2397;53.576;9.746;2023-05-11T04:37:34;101511.72;;;11.82;86.19
4767;BME280;2397;53.576;9.746;2023-05-11T04:40:02;101518.41;;;11.86;85.90
4767;BME280;2397;53.576;9.746;2023-05-11T04:42:35;101509.75;;;11.93;85.78
4767;BME280;2397;53.576;9.746;2023-05-11T04:45:04;101514.47;;;11.99;85.45
4767;BME280;2397;53.576;9.746;2023-05-11T04:47:31;101517.00;;;11.91;85.07
4767;BME280;2397;53.576;9.746;2023-05-11T04:49:58;101517.84;;;11.92;85.41
4767;BME280;2397;53.576;9.746;2023-05-11T04:52:24;101528.00;;;11.87;85.40
4767;BME280;2397;53.576;9.746;2023-05-11T04:54:51;101514.34;;;12.01;85.45
4767;BME280;2397;53.576;9.746;2023-05-11T04:57:18;101518.09;;;12.08;85.02
4767;BME280;2397;53.576;9.746;2023-05-11T04:59:46;101525.06;;;11.99;84.91
4767;BME280;2397;53.576;9.746;2023-05-11T05:02:12;101525.78;;;12.01;85.42
4767;BME280;2397;53.576;9.746;2023-05-11T05:04:39;101516.97;;;12.10;85.31
4767;BME280;2397;53.576;9.746;2023-05-11T05:07:05;101519.63;;;12.10;85.25
4767;BME280;2397;53.576;9.746;2023-05-11T05:09:33;101524.50;;;12.15;85.13
4767;BME280;2397;53.576;9.746;2023-05-11T05:11:59;101531.72;;;12.13;84.82
4767;BME280;2397;53.576;9.746;2023-05-11T05:14:27;101540.66;;;12.12;84.79
4767;BME280;2397;53.576;9.746;2023-05-11T05:16:53;101534.22;;;12.14;85.24
4767;BME280;2397;53.576;9.746;2023-05-11T05:19:20;101537.16;;;12.11;85.08
4767;BME280;2397;53.576;9.746;2023-05-11T05:21:48;101538.41;;;12.07;85.25
4767;BME280;2397;53.576;9.746;2023-05-11T05:24:15;101541.06;;;12.07;85.18
4767;BME280;2397;53.576;9.746;2023-05-11T05:26:42;101541.63;;;12.11;85.38
4767;BME280;2397;53.576;9.746;2023-05-11T05:29:10;101536.91;;;12.05;84.94
4767;BME280;2397;53.576;9.746;2023-05-11T05:31:37;101541.19;;;12.06;85.29
4767;BME280;2397;53.576;9.746;2023-05-11T05:34:04;101540.94;;;12.09;85.42
4767;BME280;2397;53.576;9.746;2023-05-11T05:36:30;101539.09;;;12.19;85.18
4767;BME280;2397;53.576;9.746;2023-05-11T05:38:57;101541.47;;;12.22;85.19
4767;BME280;2397;53.576;9.746;2023-05-11T05:41:24;101547.44;;;12.24;85.17
4767;BME280;2397;53.576;9.746;2023-05-11T05:43:51;101548.81;;;12.28;85.12
4767;BME280;2397;53.576;9.746;2023-05-11T05:46:20;101550.81;;;12.26;84.95
4767;BME280;2397;53.576;9.746;2023-05-11T05:48:47;101555.09;;;12.27;84.94
4767;BME280;2397;53.576;9.746;2023-05-11T05:51:13;101562.38;;;12.25;84.71
4767;BME280;2397;53.576;9.746;2023-05-11T05:53:40;101562.19;;;12.26;85.03
4767;BME280;2397;53.576;9.746;2023-05-11T05:56:07;101568.19;;;12.28;84.79
4767;BME280;2397;53.576;9.746;2023-05-11T05:58:34;101564.44;;;12.31;84.76
4767;BME280;2397;53.576;9.746;2023-05-11T06:01:01;101573.09;;;12.33;84.92
4767;BME280;2397;53.576;9.746;2023-05-11T06:03:28;101567.50;;;12.26;85.31
4767;BME280;2397;53.576;9.746;2023-05-11T06:05:55;101571.25;;;12.24;85.03
4767;BME280;2397;53.576;9.746;2023-05-11T06:08:22;101569.19;;;12.27;85.22
4767;BME280;2397;53.576;9.746;2023-05-11T06:10:49;101570.31;;;12.25;85.65
4767;BME280;2397;53.576;9.746;2023-05-11T06:13:16;101576.69;;;12.32;85.70
4767;BME280;2397;53.576;9.746;2023-05-11T06:15:43;101568.19;;;12.38;85.10
4767;BME280;2397;53.576;9.746;2023-05-11T06:18:25;101578.09;;;12.36;84.59
4767;BME280;2397;53.576;9.746;2023-05-11T06:20:53;101573.75;;;12.35;85.04
4767;BME280;2397;53.576;9.746;2023-05-11T06:23:21;101575.13;;;12.39;85.48
4767;BME280;2397;53.576;9.746;2023-05-11T06:25:47;101575.84;;;12.41;85.23
4767;BME280;2397;53.576;9.746;2023-05-11T06:28:14;101579.06;;;12.35;85.42
4767;BME280;2397;53.576;9.746;2023-05-11T06:30:40;101576.84;;;12.40;85.33
4767;BME280;2397;53.576;9.746;2023-05-11T06:33:08;101577.22;;;12.45;85.80
4767;BME280;2397;53.576;9.746;2023-05-11T06:35:36;101572.59;;;12.47;85.56
4767;BME280;2397;53.576;9.746;2023-05-11T06:38:05;101571.94;;;12.45;85.72
4767;BME280;2397;53.576;9.746;2023-05-11T06:40:34;101573.72;;;12.54;85.62
4767;BME280;2397;53.576;9.746;2023-05-11T06:43:00;101574.94;;;12.59;85.08
4767;BME280;2397;53.576;9.746;2023-05-11T06:45:43;101577.34;;;12.53;84.59
4767;BME280;2397;53.576;9.746;2023-05-11T06:48:10;101570.09;;;12.55;84.76
4767;BME280;2397;53.576;9.746;2023-05-11T06:50:37;101581.47;;;12.65;84.74
4767;BME280;2397;53.576;9.746;2023-05-11T06:53:04;101575.50;;;12.63;84.90
4767;BME280;2397;53.576;9.746;2023-05-11T06:55:31;101577.44;;;12.70;84.80
4767;BME280;2397;53.576;9.746;2023-05-11T06:57:58;101573.09;;;12.79;85.12
4767;BME280;2397;53.576;9.746;2023-05-11T07:00:24;101581.44;;;12.84;84.81
4767;BME280;2397;53.576;9.746;2023-05-11T07:02:51;101585.47;;;12.88;85.01
4767;BME280;2397;53.576;9.746;2023-05-11T07:05:18;101585.47;;;12.88;84.39
4767;BME280;2397;53.576;9.746;2023-05-11T07:07:44;101582.50;;;12.91;84.06
4767;BME280;2397;53.576;9.746;2023-05-11T07:10:11;101586.75;;;12.84;84.10
4767;BME280;2397;53.576;9.746;2023-05-11T07:12:38;101582.25;;;12.84;84.13
4767;BME280;2397;53.576;9.746;2023-05-11T07:15:05;101582.13;;;12.86;84.44
4767;BME280;2397;53.576;9.746;2023-05-11T07:17:32;101590.63;;;12.99;84.02
4767;BME280;2397;53.576;9.746;2023-05-11T07:19:59;101594.66;;;13.03;84.01
4767;BME280;2397;53.576;9.746;2023-05-11T07:22:25;101602.00;;;13.09;84.18
4767;BME280;2397;53.576;9.746;2023-05-11T07:24:52;101592.44;;;12.98;84.15
4767;BME280;2397;53.576;9.746;2023-05-11T07:27:18;101592.28;;;13.00;83.71
4767;BME280;2397;53.576;9.746;2023-05-11T07:29:45;101597.69;;;13.08;83.57
4767;BME280;2397;53.576;9.746;2023-05-11T07:32:11;101593.38;;;13.07;83.59
4767;BME280;2397;53.576;9.746;2023-05-11T07:34:38;101593.38;;;13.07;84.08
4767;BME280;2397;53.576;9.746;2023-05-11T07:37:06;101592.38;;;13.08;83.45
4767;BME280;2397;53.576;9.746;2023-05-11T07:39:33;101595.13;;;13.16;83.65
4767;BME280;2397;53.576;9.746;2023-05-11T07:42:00;101602.41;;;13.14;83.49
4767;BME280;2397;53.576;9.746;2023-05-11T07:44:27;101603.09;;;13.16;83.16
4767;BME280;2397;53.576;9.746;2023-05-11T07:46:53;101595.41;;;13.13;83.01
4767;BME280;2397;53.576;9.746;2023-05-11T07:49:20;101602.56;;;13.12;82.69
4767;BME280;2397;53.576;9.746;2023-05-11T07:52:00;101601.13;;;13.18;82.83
4767;BME280;2397;53.576;9.746;2023-05-11T07:54:27;101601.91;;;13.28;82.81
4767;BME280;2397;53.576;9.746;2023-05-11T07:56:53;101600.66;;;13.32;83.28
4767;BME280;2397;53.576;9.746;2023-05-11T07:59:20;101604.63;;;13.45;83.20
4767;BME280;2397;53.576;9.746;2023-05-11T08:01:47;101608.63;;;13.49;83.00
4767;BME280;2397;53.576;9.746;2023-05-11T08:04:13;101609.31;;;13.51;82.38
4767;BME280;2397;53.576;9.746;2023-05-11T08:06:40;101604.56;;;13.55;82.81
4767;BME280;2397;53.576;9.746;2023-05-11T08:09:06;101609.84;;;13.55;82.14
4767;BME280;2397;53.576;9.746;2023-05-11T08:11:33;101608.28;;;13.62;82.26
4767;BME280;2397;53.576;9.746;2023-05-11T08:13:59;101616.81;;;13.56;82.81
4767;BME280;2397;53.576;9.746;2023-05-11T08:16:26;101615.94;;;13.65;82.15
4767;BME280;2397;53.576;9.746;2023-05-11T08:18:53;101615.19;;;13.73;82.51
4767;BME280;2397;53.576;9.746;2023-05-11T08:21:19;101608.44;;;13.78;82.33
4767;BME280;2397;53.576;9.746;2023-05-11T08:23:46;101613.16;;;13.84;82.34
4767;BME280;2397;53.576;9.746;2023-05-11T08:26:12;101610.50;;;13.84;82.70
4767;BME280;2397;53.576;9.746;2023-05-11T08:28:39;101620.81;;;13.87;82.00
4767;BME280;2397;53.576;9.746;2023-05-11T08:31:06;101609.88;;;13.90;82.56
4767;BME280;2397;53.576;9.746;2023-05-11T08:33:33;101613.44;;;13.99;82.49
4767;BME280;2397;53.576;9.746;2023-05-11T08:36:05;101615.38;;;14.06;82.35
4767;BME280;2397;53.576;9.746;2023-05-11T08:38:33;101610.06;;;14.06;82.27
4767;BME280;2397;53.576;9.746;2023-05-11T08:41:01;101620.75;;;14.14;82.85
4767;BME280;2397;53.576;9.746;2023-05-11T08:43:28;101617.44;;;14.20;82.54
4767;BME280;2397;53.576;9.746;2023-05-11T08:45:56;101611.25;;;14.12;82.58
4767;BME280;2397;53.576;9.746;2023-05-11T08:48:26;101618.03;;;14.24;82.88
4767;BME280;2397;53.576;9.746;2023-05-11T08:50:54;101620.28;;;14.19;82.85
4767;BME280;2397;53.576;9.746;2023-05-11T08:53:21;101620.38;;;14.27;82.94
4767;BME280;2397;53.576;9.746;2023-05-11T08:55:49;101618.78;;;14.34;82.71
4767;BME280;2397;53.576;9.746;2023-05-11T08:58:17;101614.97;;;14.36;82.74
4767;BME280;2397;53.576;9.746;2023-05-11T09:00:50;101624.38;;;14.48;82.63
4767;BME280;2397;53.576;9.746;2023-05-11T09:03:17;101620.88;;;14.48;82.75
4767;BME280;2397;53.576;9.746;2023-05-11T09:05:46;101621.41;;;14.51;82.11
4767;BME280;2397;53.576;9.746;2023-05-11T09:08:13;101625.47;;;14.63;82.78
4767;BME280;2397;53.576;9.746;2023-05-11T09:10:41;101616.03;;;14.69;81.84
4767;BME280;2397;53.576;9.746;2023-05-11T09:13:09;101624.16;;;14.67;81.58
4767;BME280;2397;53.576;9.746;2023-05-11T09:15:35;101617.66;;;14.62;81.53
4767;BME280;2397;53.576;9.746;2023-05-11T09:18:04;101614.53;;;14.66;82.28
4767;BME280;2397;53.576;9.746;2023-05-11T09:20:32;101614.88;;;14.71;82.12
4767;BME280;2397;53.576;9.746;2023-05-11T09:22:59;101624.56;;;14.72;81.90
4767;BME280;2397;53.576;9.746;2023-05-11T09:25:28;101627.50;;;14.69;82.59
4767;BME280;2397;53.576;9.746;2023-05-11T09:27:58;101618.41;;;14.72;81.73
4767;BME280;2397;53.576;9.746;2023-05-11T09:30:26;101629.13;;;14.62;82.27
4767;BME280;2397;53.576;9.746;2023-05-11T09:32:59;101629.63;;;14.66;82.46
4767;BME280;2397;53.576;9.746;2023-05-11T09:35:28;101618.69;;;14.69;82.42
4767;BME280;2397;53.576;9.746;2023-05-11T09:38:13;101625.66;;;14.70;81.98
4767;BME280;2397;53.576;9.746;2023-05-11T09:40:49;101617.78;;;14.78;81.68
4767;BME280;2397;53.576;9.746;2023-05-11T09:45:47;101628.59;;;14.84;81.30
4767;BME280;2397;53.576;9.746;2023-05-11T09:50:41;101630.13;;;14.61;82.50
4767;BME280;2397;53.576;9.746;2023-05-11T09:53:08;101635.03;;;14.56;82.78
4767;BME280;2397;53.576;9.746;2023-05-11T09:55:35;101632.63;;;14.63;83.76
4767;BME280;2397;53.576;9.746;2023-05-11T09:58:02;101640.09;;;14.67;83.91
4767;BME280;2397;53.576;9.746;2023-05-11T10:00:30;101634.09;;;14.57;83.19
4767;BME280;2397;53.576;9.746;2023-05-11T10:03:00;101639.41;;;14.57;83.20
4767;BME280;2397;53.576;9.746;2023-05-11T10:05:30;101634.13;;;14.65;83.09
4767;BME280;2397;53.576;9.746;2023-05-11T10:08:01;101630.72;;;14.55;83.42
4767;BME280;2397;53.576;9.746;2023-05-11T10:10:33;101632.78;;;14.61;84.60
4767;BME280;2397;53.576;9.746;2023-05-11T10:13:01;101638.69;;;14.55;84.58
4767;BME280;2397;53.576;9.746;2023-05-11T10:15:28;101640.50;;;14.55;85.01
4767;BME280;2397;53.576;9.746;2023-05-11T10:17:57;101635.75;;;14.58;84.97
4767;BME280;2397;53.576;9.746;2023-05-11T10:20:25;101631.09;;;14.60;84.60
4767;BME280;2397;53.576;9.746;2023-05-11T10:22:53;101636.50;;;14.51;84.98
4767;BME280;2397;53.576;9.746;2023-05-11T10:25:21;101631.19;;;14.51;85.06
4767;BME280;2397;53.576;9.746;2023-05-11T10:27:48;101629.38;;;14.51;85.35
4767;BME280;2397;53.576;9.746;2023-05-11T10:30:15;101626.13;;;14.57;85.64
4767;BME280;2397;53.576;9.746;2023-05-11T10:32:44;101626.47;;;14.62;85.71
4767;BME280;2397;53.576;9.746;2023-05-11T10:35:12;101628.97;;;14.64;85.67
4767;BME280;2397;53.576;9.746;2023-05-11T10:37:40;101632.69;;;14.53;85.44
4767;BME280;2397;53.576;9.746;2023-05-11T10:40:08;101626.56;;;14.53;85.65
4767;BME280;2397;53.576;9.746;2023-05-11T10:45:25;101629.31;;;14.43;86.31
4767;BME280;2397;53.576;9.746;2023-05-11T10:48:10;101624.66;;;14.45;86.28
4767;BME280;2397;53.576;9.746;2023-05-11T11:02:17;101620.34;;;14.70;86.29
4767;BME280;2397;53.576;9.746;2023-05-11T11:07:12;101626.59;;;14.86;86.31
4767;BME280;2397;53.576;9.746;2023-05-11T11:10:00;101626.34;;;14.97;85.94
4767;BME280;2397;53.576;9.746;2023-05-11T11:12:30;101625.94;;;15.18;85.83
4767;BME280;2397;53.576;9.746;2023-05-11T11:15:04;101634.03;;;15.34;85.38
4767;BME280;2397;53.576;9.746;2023-05-11T11:17:33;101629.59;;;15.42;84.25
4767;BME280;2397;53.576;9.746;2023-05-11T11:20:05;101629.78;;;15.49;84.21
4767;BME280;2397;53.576;9.746;2023-05-11T11:25:05;101632.28;;;15.50;83.86
4767;BME280;2397;53.576;9.746;2023-05-11T11:30:28;101628.28;;;15.46;82.83
4767;BME280;2397;53.576;9.746;2023-05-11T11:38:13;101628.34;;;15.70;83.32
4767;BME280;2397;53.576;9.746;2023-05-11T11:40:42;101625.69;;;15.70;82.35
4767;BME280;2397;53.576;9.746;2023-05-11T11:43:14;101631.88;;;15.79;82.76
4767;BME280;2397;53.576;9.746;2023-05-11T11:48:32;101641.66;;;15.78;82.80
4767;BME280;2397;53.576;9.746;2023-05-11T12:01:14;101623.63;;;16.22;81.41
4767;BME280;2397;53.576;9.746;2023-05-11T12:03:42;101629.75;;;16.22;79.94
4767;BME280;2397;53.576;9.746;2023-05-11T12:06:10;101631.94;;;16.19;79.98
4767;BME280;2397;53.576;9.746;2023-05-11T12:08:38;101631.78;;;16.12;80.48
4767;BME280;2397;53.576;9.746;2023-05-11T12:11:06;101627.56;;;16.02;80.55
4767;BME280;2397;53.576;9.746;2023-05-11T12:13:34;101627.25;;;16.05;81.64
4767;BME280;2397;53.576;9.746;2023-05-11T12:18:38;101631.09;;;16.02;82.31
4767;BME280;2397;53.576;9.746;2023-05-11T12:21:04;101625.09;;;16.16;82.38
4767;BME280;2397;53.576;9.746;2023-05-11T12:23:31;101627.78;;;16.24;81.19
4767;BME280;2397;53.576;9.746;2023-05-11T12:26:05;101615.44;;;16.39;81.17
4767;BME280;2397;53.576;9.746;2023-05-11T12:28:32;101624.09;;;16.33;80.75
4767;BME280;2397;53.576;9.746;2023-05-11T12:30:59;101624.78;;;16.35;81.35
4767;BME280;2397;53.576;9.746;2023-05-11T12:33:26;101620.63;;;16.41;80.51
4767;BME280;2397;53.576;9.746;2023-05-11T12:35:54;101619.13;;;16.38;80.31
4767;BME280;2397;53.576;9.746;2023-05-11T12:38:22;101624.44;;;16.38;81.00
4767;BME280;2397;53.576;9.746;2023-05-11T12:40:49;101629.25;;;16.35;81.26
4767;BME280;2397;53.576;9.746;2023-05-11T12:43:18;101623.44;;;16.31;81.19
4767;BME280;2397;53.576;9.746;2023-05-11T12:45:45;101623.63;;;16.30;81.06
4767;BME280;2397;53.576;9.746;2023-05-11T12:48:12;101622.75;;;16.37;80.38
4767;BME280;2397;53.576;9.746;2023-05-11T12:50:44;101619.63;;;16.42;80.49
4767;BME280;2397;53.576;9.746;2023-05-11T12:53:14;101620.13;;;16.61;80.33
4767;BME280;2397;53.576;9.746;2023-05-11T12:55:42;101613.88;;;17.01;79.75
4767;BME280;2397;53.576;9.746;2023-05-11T12:58:13;101609.41;;;17.71;78.59
4767;BME280;2397;53.576;9.746;2023-05-11T13:00:55;101602.75;;;18.34;75.30
4767;BME280;2397;53.576;9.746;2023-05-11T13:03:29;101611.31;;;18.38;75.36
4767;BME280;2397;53.576;9.746;2023-05-11T13:06:06;101604.56;;;18.19;76.34
4767;BME280;2397;53.576;9.746;2023-05-11T13:08:44;101605.75;;;17.94;72.89
4767;BME280;2397;53.576;9.746;2023-05-11T13:11:23;101606.81;;;17.85;74.63
4767;BME280;2397;53.576;9.746;2023-05-11T13:13:52;101602.72;;;17.75;75.53
4767;BME280;2397;53.576;9.746;2023-05-11T13:16:32;101608.81;;;17.61;75.68
4767;BME280;2397;53.576;9.746;2023-05-11T13:19:03;101602.50;;;17.54;75.89
4767;BME280;2397;53.576;9.746;2023-05-11T13:21:30;101589.13;;;17.62;74.57
4767;BME280;2397;53.576;9.746;2023-05-11T13:23:59;101586.47;;;18.07;74.46
4767;BME280;2397;53.576;9.746;2023-05-11T13:26:29;101589.69;;;18.91;72.69
4767;BME280;2397;53.576;9.746;2023-05-11T13:28:56;101586.22;;;19.55;71.58
4767;BME280;2397;53.576;9.746;2023-05-11T13:31:46;101588.91;;;19.90;67.89
4767;BME280;2397;53.576;9.746;2023-05-11T13:34:13;101581.41;;;19.65;68.09
4767;BME280;2397;53.576;9.746;2023-05-11T13:36:40;101580.63;;;19.50;68.86
4767;BME280;2397;53.576;9.746;2023-05-11T13:39:07;101582.88;;;19.17;70.45
4767;BME280;2397;53.576;9.746;2023-05-11T13:41:34;101569.03;;;18.56;70.09
4767;BME280;2397;53.576;9.746;2023-05-11T13:44:01;101580.25;;;18.51;71.80
4767;BME280;2397;53.576;9.746;2023-05-11T13:46:28;101580.88;;;18.39;73.24
4767;BME280;2397;53.576;9.746;2023-05-11T13:48:55;101566.63;;;18.24;72.38
4767;BME280;2397;53.576;9.746;2023-05-11T13:51:21;101566.34;;;18.19;71.89
4767;BME280;2397;53.576;9.746;2023-05-11T13:53:48;101565.53;;;18.33;72.16
4767;BME280;2397;53.576;9.746;2023-05-11T13:56:14;101564.59;;;18.26;71.77
4767;BME280;2397;53.576;9.746;2023-05-11T13:58:41;101558.34;;;18.33;71.19
4767;BME280;2397;53.576;9.746;2023-05-11T14:01:08;101547.38;;;18.65;71.84
4767;BME280;2397;53.576;9.746;2023-05-11T14:03:35;101543.97;;;18.86;70.02
4767;BME280;2397;53.576;9.746;2023-05-11T14:06:01;101539.59;;;19.64;67.28
4767;BME280;2397;53.576;9.746;2023-05-11T14:08:28;101537.91;;;20.05;66.32
4767;BME280;2397;53.576;9.746;2023-05-11T14:10:54;101542.28;;;20.34;68.92
4767;BME280;2397;53.576;9.746;2023-05-11T14:13:21;101541.75;;;19.96;65.66